sensor_id;sensor_type;location;lat;lon;timestamp;P1;durP1;ratioP1;P2;durP2;ratioP2
14066;SDS011;7108;42.684;23.350;2023-05-07T00:00:35;250.20;;;89.10;;
14066;SDS011;7108;42.684;23.350;2023-05-07T00:03:01;252.10;;;88.97;;
14066;SDS011;7108;42.684;23.350;2023-05-07T00:05:26;271.73;;;88.03;;
14066;SDS011;7108;42.684;23.350;2023-05-07T00:07:51;263.10;;;91.77;;
14066;SDS011;7108;42.684;23.350;2023-05-07T00:10:20;268.83;;;89.40;;
14066;SDS011;7108;42.684;23.350;2023-05-07T00:12:45;253.77;;;88.60;;
14066;SDS011;7108;42.684;23.350;2023-05-07T00:15:11;252.70;;;87.97;;
14066;SDS011;7108;42.684;23.350;2023-05-07T00:17:36;225.13;;;84.30;;
14066;SDS011;7108;42.684;23.350;2023-05-07T00:20:02;241.33;;;85.23;;
14066;SDS011;7108;42.684;23.350;2023-05-07T00:22:29;265.07;;;95.10;;
14066;SDS011;7108;42.684;23.350;2023-05-07T00:24:56;253.27;;;88.47;;
14066;SDS011;7108;42.684;23.350;2023-05-07T00:27:21;271.50;;;91.27;;
14066;SDS011;7108;42.684;23.350;2023-05-07T00:29:47;248.77;;;87.40;;
14066;SDS011;7108;42.684;23.350;2023-05-07T00:32:13;253.30;;;85.53;;
14066;SDS011;7108;42.684;23.350;2023-05-07T00:34:38;221.67;;;84.23;;
14066;SDS011;7108;42.684;23.350;2023-05-07T00:37:04;236.87;;;86.40;;
14066;SDS011;7108;42.684;23.350;2023-05-07T00:39:32;254.70;;;89.40;;
14066;SDS011;7108;42.684;23.350;2023-05-07T00:41:58;221.33;;;81.33;;
14066;SDS011;7108;42.684;23.350;2023-05-07T00:44:25;276.83;;;92.07;;
14066;SDS011;7108;42.684;23.350;2023-05-07T00:46:51;264.77;;;89.03;;
14066;SDS011;7108;42.684;23.350;2023-05-07T00:49:17;249.17;;;87.37;;
14066;SDS011;7108;42.684;23.350;2023-05-07T00:51:43;244.53;;;85.13;;
14066;SDS011;7108;42.684;23.350;2023-05-07T00:54:09;250.47;;;86.00;;
14066;SDS011;7108;42.684;23.350;2023-05-07T00:56:36;235.63;;;86.10;;
14066;SDS011;7108;42.684;23.350;2023-05-07T00:59:02;231.13;;;85.73;;
14066;SDS011;7108;42.684;23.350;2023-05-07T01:01:28;247.20;;;85.03;;
14066;SDS011;7108;42.684;23.350;2023-05-07T01:03:54;240.40;;;84.77;;
14066;SDS011;7108;42.684;23.350;2023-05-07T01:06:20;271.77;;;86.17;;
14066;SDS011;7108;42.684;23.350;2023-05-07T01:08:48;254.10;;;86.73;;
14066;SDS011;7108;42.684;23.350;2023-05-07T01:11:15;244.67;;;85.73;;
14066;SDS011;7108;42.684;23.350;2023-05-07T01:13:42;242.30;;;84.10;;
14066;SDS011;7108;42.684;23.350;2023-05-07T01:16:08;226.27;;;84.70;;
14066;SDS011;7108;42.684;23.350;2023-05-07T01:18:34;247.90;;;85.03;;
14066;SDS011;7108;42.684;23.350;2023-05-07T01:21:00;228.70;;;84.07;;
14066;SDS011;7108;42.684;23.350;2023-05-07T01:23:28;255.60;;;81.77;;
14066;SDS011;7108;42.684;23.350;2023-05-07T01:25:55;242.70;;;86.27;;
14066;SDS011;7108;42.684;23.350;2023-05-07T01:28:21;239.07;;;83.03;;
14066;SDS011;7108;42.684;23.350;2023-05-07T01:30:48;235.27;;;85.77;;
14066;SDS011;7108;42.684;23.350;2023-05-07T01:33:19;239.37;;;83.17;;
14066;SDS011;7108;42.684;23.350;2023-05-07T01:35:47;253.57;;;86.80;;
14066;SDS011;7108;42.684;23.350;2023-05-07T01:38:15;253.57;;;83.67;;
14066;SDS011;7108;42.684;23.350;2023-05-07T01:40:41;237.00;;;80.77;;
14066;SDS011;7108;42.684;23.350;2023-05-07T01:43:07;223.00;;;84.77;;
14066;SDS011;7108;42.684;23.350;2023-05-07T01:45:34;232.03;;;82.90;;
14066;SDS011;7108;42.684;23.350;2023-05-07T01:48:00;220.07;;;83.00;;
14066;SDS011;7108;42.684;23.350;2023-05-07T01:50:26;244.20;;;83.73;;
14066;SDS011;7108;42.684;23.350;2023-05-07T01:52:52;244.03;;;84.13;;
14066;SDS011;7108;42.684;23.350;2023-05-07T01:55:18;235.30;;;80.90;;
14066;SDS011;7108;42.684;23.350;2023-05-07T01:57:43;244.10;;;82.73;;
14066;SDS011;7108;42.684;23.350;2023-05-07T02:00:09;221.17;;;79.70;;
14066;SDS011;7108;42.684;23.350;2023-05-07T02:02:35;232.77;;;78.83;;
14066;SDS011;7108;42.684;23.350;2023-05-07T02:05:00;217.43;;;80.97;;
14066;SDS011;7108;42.684;23.350;2023-05-07T02:07:26;248.90;;;81.90;;
14066;SDS011;7108;42.684;23.350;2023-05-07T02:09:52;252.23;;;82.30;;
14066;SDS011;7108;42.684;23.350;2023-05-07T02:12:18;247.23;;;85.30;;
14066;SDS011;7108;42.684;23.350;2023-05-07T02:14:44;226.73;;;81.07;;
14066;SDS011;7108;42.684;23.350;2023-05-07T02:17:09;212.07;;;77.40;;
14066;SDS011;7108;42.684;23.350;2023-05-07T02:19:35;229.43;;;80.37;;
14066;SDS011;7108;42.684;23.350;2023-05-07T02:22:00;215.37;;;79.00;;
14066;SDS011;7108;42.684;23.350;2023-05-07T02:24:26;251.97;;;82.23;;
14066;SDS011;7108;42.684;23.350;2023-05-07T02:26:51;241.93;;;83.63;;
14066;SDS011;7108;42.684;23.350;2023-05-07T02:29:16;241.00;;;83.43;;
14066;SDS011;7108;42.684;23.350;2023-05-07T02:31:42;251.10;;;82.97;;
14066;SDS011;7108;42.684;23.350;2023-05-07T02:34:07;219.10;;;81.00;;
14066;SDS011;7108;42.684;23.350;2023-05-07T02:36:32;231.20;;;80.80;;
14066;SDS011;7108;42.684;23.350;2023-05-07T02:38:58;213.43;;;77.73;;
14066;SDS011;7108;42.684;23.350;2023-05-07T02:41:23;261.53;;;85.83;;
14066;SDS011;7108;42.684;23.350;2023-05-07T02:43:49;246.00;;;83.73;;
14066;SDS011;7108;42.684;23.350;2023-05-07T02:46:14;247.10;;;80.90;;
14066;SDS011;7108;42.684;23.350;2023-05-07T02:48:40;242.70;;;85.57;;
14066;SDS011;7108;42.684;23.350;2023-05-07T02:51:06;214.03;;;77.77;;
14066;SDS011;7108;42.684;23.350;2023-05-07T02:53:31;219.73;;;80.07;;
14066;SDS011;7108;42.684;23.350;2023-05-07T02:55:57;248.67;;;84.77;;
14066;SDS011;7108;42.684;23.350;2023-05-07T02:58:23;241.93;;;84.73;;
14066;SDS011;7108;42.684;23.350;2023-05-07T03:00:49;245.07;;;83.43;;
14066;SDS011;7108;42.684;23.350;2023-05-07T03:03:15;246.20;;;84.57;;
14066;SDS011;7108;42.684;23.350;2023-05-07T03:05:40;250.67;;;84.87;;
14066;SDS011;7108;42.684;23.350;2023-05-07T03:08:06;226.30;;;81.43;;
14066;SDS011;7108;42.684;23.350;2023-05-07T03:10:32;232.87;;;84.30;;
14066;SDS011;7108;42.684;23.350;2023-05-07T03:12:58;231.00;;;83.40;;
14066;SDS011;7108;42.684;23.350;2023-05-07T03:15:23;255.97;;;85.70;;
14066;SDS011;7108;42.684;23.350;2023-05-07T03:17:48;239.63;;;85.20;;
14066;SDS011;7108;42.684;23.350;2023-05-07T03:20:14;255.47;;;85.23;;
14066;SDS011;7108;42.684;23.350;2023-05-07T03:22:40;225.17;;;82.37;;
14066;SDS011;7108;42.684;23.350;2023-05-07T03:25:05;219.00;;;82.27;;
14066;SDS011;7108;42.684;23.350;2023-05-07T03:27:31;234.80;;;82.20;;
14066;SDS011;7108;42.684;23.350;2023-05-07T03:29:57;255.87;;;88.43;;
14066;SDS011;7108;42.684;23.350;2023-05-07T03:32:22;245.53;;;85.33;;
14066;SDS011;7108;42.684;23.350;2023-05-07T03:34:48;238.03;;;86.70;;
14066;SDS011;7108;42.684;23.350;2023-05-07T03:37:13;252.50;;;81.00;;
14066;SDS011;7108;42.684;23.350;2023-05-07T03:39:39;246.83;;;87.77;;
14066;SDS011;7108;42.684;23.350;2023-05-07T03:42:04;225.37;;;83.17;;
14066;SDS011;7108;42.684;23.350;2023-05-07T03:44:29;224.37;;;81.53;;
14066;SDS011;7108;42.684;23.350;2023-05-07T03:46:55;238.20;;;83.87;;
14066;SDS011;7108;42.684;23.350;2023-05-07T03:49:20;236.53;;;83.30;;
14066;SDS011;7108;42.684;23.350;2023-05-07T03:51:46;254.57;;;85.83;;
14066;SDS011;7108;42.684;23.350;2023-05-07T03:54:11;243.63;;;85.07;;
14066;SDS011;7108;42.684;23.350;2023-05-07T03:56:37;230.53;;;82.97;;
14066;SDS011;7108;42.684;23.350;2023-05-07T03:59:02;226.07;;;82.00;;
14066;SDS011;7108;42.684;23.350;2023-05-07T04:01:28;237.50;;;84.40;;
14066;SDS011;7108;42.684;23.350;2023-05-07T04:03:53;247.87;;;84.97;;
14066;SDS011;7108;42.684;23.350;2023-05-07T04:06:19;247.77;;;85.60;;
14066;SDS011;7108;42.684;23.350;2023-05-07T04:08:44;237.37;;;82.93;;
14066;SDS011;7108;42.684;23.350;2023-05-07T04:11:09;228.57;;;83.67;;
14066;SDS011;7108;42.684;23.350;2023-05-07T04:13:35;228.90;;;79.20;;
14066;SDS011;7108;42.684;23.350;2023-05-07T04:16:04;243.33;;;84.63;;
14066;SDS011;7108;42.684;23.350;2023-05-07T04:18:30;237.43;;;81.73;;
14066;SDS011;7108;42.684;23.350;2023-05-07T04:20:55;254.77;;;85.20;;
14066;SDS011;7108;42.684;23.350;2023-05-07T04:23:21;251.57;;;85.10;;
14066;SDS011;7108;42.684;23.350;2023-05-07T04:25:46;247.03;;;86.77;;
14066;SDS011;7108;42.684;23.350;2023-05-07T04:28:12;253.47;;;87.40;;
14066;SDS011;7108;42.684;23.350;2023-05-07T04:30:38;236.23;;;81.53;;
14066;SDS011;7108;42.684;23.350;2023-05-07T04:33:04;233.57;;;81.40;;
14066;SDS011;7108;42.684;23.350;2023-05-07T04:35:29;229.67;;;81.00;;
14066;SDS011;7108;42.684;23.350;2023-05-07T04:37:54;224.73;;;81.30;;
14066;SDS011;7108;42.684;23.350;2023-05-07T04:40:20;258.43;;;85.30;;
14066;SDS011;7108;42.684;23.350;2023-05-07T04:42:45;231.97;;;84.00;;
14066;SDS011;7108;42.684;23.350;2023-05-07T04:45:11;231.33;;;84.33;;
14066;SDS011;7108;42.684;23.350;2023-05-07T04:47:37;241.13;;;85.97;;
14066;SDS011;7108;42.684;23.350;2023-05-07T04:50:03;226.33;;;85.60;;
14066;SDS011;7108;42.684;23.350;2023-05-07T04:52:29;230.37;;;83.20;;
14066;SDS011;7108;42.684;23.350;2023-05-07T04:54:56;241.80;;;83.17;;
14066;SDS011;7108;42.684;23.350;2023-05-07T04:57:21;243.93;;;81.53;;
14066;SDS011;7108;42.684;23.350;2023-05-07T04:59:46;244.10;;;84.03;;
14066;SDS011;7108;42.684;23.350;2023-05-07T05:02:12;258.20;;;86.77;;
14066;SDS011;7108;42.684;23.350;2023-05-07T05:04:37;243.67;;;84.87;;
14066;SDS011;7108;42.684;23.350;2023-05-07T05:07:03;234.07;;;84.87;;
14066;SDS011;7108;42.684;23.350;2023-05-07T05:09:29;259.23;;;88.13;;
14066;SDS011;7108;42.684;23.350;2023-05-07T05:11:55;322.20;;;113.43;;
14066;SDS011;7108;42.684;23.350;2023-05-07T05:14:20;340.03;;;136.47;;
14066;SDS011;7108;42.684;23.350;2023-05-07T05:16:46;290.17;;;118.13;;
14066;SDS011;7108;42.684;23.350;2023-05-07T05:19:11;244.63;;;86.97;;
14066;SDS011;7108;42.684;23.350;2023-05-07T05:21:37;219.07;;;78.67;;
14066;SDS011;7108;42.684;23.350;2023-05-07T05:24:02;229.63;;;81.53;;
14066;SDS011;7108;42.684;23.350;2023-05-07T05:26:28;246.10;;;86.63;;
14066;SDS011;7108;42.684;23.350;2023-05-07T05:28:53;278.47;;;91.20;;
14066;SDS011;7108;42.684;23.350;2023-05-07T05:31:19;247.27;;;84.20;;
14066;SDS011;7108;42.684;23.350;2023-05-07T05:33:44;260.40;;;87.40;;
14066;SDS011;7108;42.684;23.350;2023-05-07T05:36:10;247.37;;;88.87;;
14066;SDS011;7108;42.684;23.350;2023-05-07T05:38:35;238.93;;;84.80;;
14066;SDS011;7108;42.684;23.350;2023-05-07T05:41:01;223.17;;;84.00;;
14066;SDS011;7108;42.684;23.350;2023-05-07T05:43:27;259.77;;;87.33;;
14066;SDS011;7108;42.684;23.350;2023-05-07T05:45:52;268.40;;;94.33;;
14066;SDS011;7108;42.684;23.350;2023-05-07T05:48:18;260.33;;;92.07;;
14066;SDS011;7108;42.684;23.350;2023-05-07T05:50:43;253.53;;;89.43;;
14066;SDS011;7108;42.684;23.350;2023-05-07T05:53:08;235.67;;;90.30;;
14066;SDS011;7108;42.684;23.350;2023-05-07T05:55:34;248.43;;;91.00;;
14066;SDS011;7108;42.684;23.350;2023-05-07T05:58:02;247.87;;;92.23;;
14066;SDS011;7108;42.684;23.350;2023-05-07T06:00:28;250.07;;;92.57;;
14066;SDS011;7108;42.684;23.350;2023-05-07T06:02:54;252.67;;;93.87;;
14066;SDS011;7108;42.684;23.350;2023-05-07T06:05:20;253.90;;;96.97;;
14066;SDS011;7108;42.684;23.350;2023-05-07T06:07:45;249.30;;;93.30;;
14066;SDS011;7108;42.684;23.350;2023-05-07T06:10:13;250.63;;;95.53;;
14066;SDS011;7108;42.684;23.350;2023-05-07T06:12:39;239.83;;;94.73;;
14066;SDS011;7108;42.684;23.350;2023-05-07T06:15:05;247.20;;;99.70;;
14066;SDS011;7108;42.684;23.350;2023-05-07T06:17:31;260.33;;;97.67;;
14066;SDS011;7108;42.684;23.350;2023-05-07T06:19:56;262.93;;;99.63;;
14066;SDS011;7108;42.684;23.350;2023-05-07T06:22:21;264.13;;;105.87;;
14066;SDS011;7108;42.684;23.350;2023-05-07T06:24:47;266.03;;;107.63;;
14066;SDS011;7108;42.684;23.350;2023-05-07T06:27:12;270.63;;;105.17;;
14066;SDS011;7108;42.684;23.350;2023-05-07T06:29:38;246.07;;;101.60;;
14066;SDS011;7108;42.684;23.350;2023-05-07T06:32:07;241.03;;;103.70;;
14066;SDS011;7108;42.684;23.350;2023-05-07T06:34:36;254.40;;;106.37;;
14066;SDS011;7108;42.684;23.350;2023-05-07T06:37:02;242.43;;;107.73;;
14066;SDS011;7108;42.684;23.350;2023-05-07T06:39:27;263.73;;;104.00;;
14066;SDS011;7108;42.684;23.350;2023-05-07T06:41:53;263.83;;;103.33;;
14066;SDS011;7108;42.684;23.350;2023-05-07T06:44:19;264.03;;;103.67;;
14066;SDS011;7108;42.684;23.350;2023-05-07T06:46:44;276.67;;;108.30;;
14066;SDS011;7108;42.684;23.350;2023-05-07T06:49:10;241.97;;;101.63;;
14066;SDS011;7108;42.684;23.350;2023-05-07T06:51:36;253.03;;;105.47;;
14066;SDS011;7108;42.684;23.350;2023-05-07T06:54:02;250.03;;;101.67;;
14066;SDS011;7108;42.684;23.350;2023-05-07T06:56:29;260.53;;;101.57;;
14066;SDS011;7108;42.684;23.350;2023-05-07T06:58:55;280.87;;;103.77;;
14066;SDS011;7108;42.684;23.350;2023-05-07T07:01:20;249.90;;;100.43;;
14066;SDS011;7108;42.684;23.350;2023-05-07T07:03:46;259.93;;;100.70;;
14066;SDS011;7108;42.684;23.350;2023-05-07T07:06:11;250.13;;;100.70;;
14066;SDS011;7108;42.684;23.350;2023-05-07T07:08:37;263.63;;;104.97;;
14066;SDS011;7108;42.684;23.350;2023-05-07T07:11:03;239.20;;;98.43;;
14066;SDS011;7108;42.684;23.350;2023-05-07T07:13:29;265.57;;;103.87;;
14066;SDS011;7108;42.684;23.350;2023-05-07T07:15:55;271.77;;;102.50;;
14066;SDS011;7108;42.684;23.350;2023-05-07T07:18:20;275.37;;;108.43;;
14066;SDS011;7108;42.684;23.350;2023-05-07T07:20:46;272.30;;;109.80;;
14066;SDS011;7108;42.684;23.350;2023-05-07T07:23:11;270.43;;;108.50;;
14066;SDS011;7108;42.684;23.350;2023-05-07T07:25:37;259.97;;;106.83;;
14066;SDS011;7108;42.684;23.350;2023-05-07T07:28:02;250.10;;;106.70;;
14066;SDS011;7108;42.684;23.350;2023-05-07T07:30:28;249.50;;;106.73;;
14066;SDS011;7108;42.684;23.350;2023-05-07T07:32:53;274.07;;;113.10;;
14066;SDS011;7108;42.684;23.350;2023-05-07T07:35:20;298.33;;;117.90;;
14066;SDS011;7108;42.684;23.350;2023-05-07T07:37:45;277.87;;;111.17;;
14066;SDS011;7108;42.684;23.350;2023-05-07T07:40:12;262.83;;;109.30;;
14066;SDS011;7108;42.684;23.350;2023-05-07T07:42:37;259.47;;;112.47;;
14066;SDS011;7108;42.684;23.350;2023-05-07T07:45:03;264.23;;;107.00;;
14066;SDS011;7108;42.684;23.350;2023-05-07T07:47:29;272.60;;;109.87;;
14066;SDS011;7108;42.684;23.350;2023-05-07T07:49:54;280.03;;;112.60;;
14066;SDS011;7108;42.684;23.350;2023-05-07T07:52:20;269.53;;;108.73;;
14066;SDS011;7108;42.684;23.350;2023-05-07T07:54:46;268.83;;;109.90;;
14066;SDS011;7108;42.684;23.350;2023-05-07T07:57:11;267.57;;;110.43;;
14066;SDS011;7108;42.684;23.350;2023-05-07T07:59:36;264.20;;;111.87;;
14066;SDS011;7108;42.684;23.350;2023-05-07T08:02:02;249.27;;;109.60;;
14066;SDS011;7108;42.684;23.350;2023-05-07T08:04:27;272.60;;;110.77;;
14066;SDS011;7108;42.684;23.350;2023-05-07T08:06:53;285.03;;;113.10;;
14066;SDS011;7108;42.684;23.350;2023-05-07T08:09:19;288.90;;;113.63;;
14066;SDS011;7108;42.684;23.350;2023-05-07T08:11:45;285.87;;;114.80;;
14066;SDS011;7108;42.684;23.350;2023-05-07T08:14:11;248.17;;;109.80;;
14066;SDS011;7108;42.684;23.350;2023-05-07T08:16:36;256.07;;;105.13;;
14066;SDS011;7108;42.684;23.350;2023-05-07T08:19:02;251.10;;;104.90;;
14066;SDS011;7108;42.684;23.350;2023-05-07T08:21:27;278.70;;;108.87;;
14066;SDS011;7108;42.684;23.350;2023-05-07T08:23:53;278.67;;;112.83;;
14066;SDS011;7108;42.684;23.350;2023-05-07T08:26:18;279.40;;;108.83;;
14066;SDS011;7108;42.684;23.350;2023-05-07T08:28:43;274.23;;;108.47;;
14066;SDS011;7108;42.684;23.350;2023-05-07T08:31:09;259.57;;;114.17;;
14066;SDS011;7108;42.684;23.350;2023-05-07T08:33:34;253.70;;;111.60;;
14066;SDS011;7108;42.684;23.350;2023-05-07T08:36:00;255.77;;;113.53;;
14066;SDS011;7108;42.684;23.350;2023-05-07T08:38:25;256.37;;;112.17;;
14066;SDS011;7108;42.684;23.350;2023-05-07T08:40:51;272.93;;;114.77;;
14066;SDS011;7108;42.684;23.350;2023-05-07T08:43:16;306.57;;;123.33;;
14066;SDS011;7108;42.684;23.350;2023-05-07T08:45:43;303.57;;;120.40;;
14066;SDS011;7108;42.684;23.350;2023-05-07T08:48:17;266.10;;;113.20;;
14066;SDS011;7108;42.684;23.350;2023-05-07T08:50:42;288.93;;;117.47;;
14066;SDS011;7108;42.684;23.350;2023-05-07T08:53:08;270.37;;;114.90;;
14066;SDS011;7108;42.684;23.350;2023-05-07T08:55:34;277.93;;;119.87;;
14066;SDS011;7108;42.684;23.350;2023-05-07T08:58:00;267.17;;;116.60;;
14066;SDS011;7108;42.684;23.350;2023-05-07T09:00:26;276.67;;;112.70;;
14066;SDS011;7108;42.684;23.350;2023-05-07T09:02:52;265.63;;;109.90;;
14066;SDS011;7108;42.684;23.350;2023-05-07T09:05:18;275.43;;;114.13;;
14066;SDS011;7108;42.684;23.350;2023-05-07T09:07:43;319.90;;;117.17;;
14066;SDS011;7108;42.684;23.350;2023-05-07T09:10:09;250.60;;;108.00;;
14066;SDS011;7108;42.684;23.350;2023-05-07T09:12:35;259.80;;;107.40;;
14066;SDS011;7108;42.684;23.350;2023-05-07T09:15:01;257.97;;;111.43;;
14066;SDS011;7108;42.684;23.350;2023-05-07T09:17:27;278.40;;;116.47;;
14066;SDS011;7108;42.684;23.350;2023-05-07T09:19:53;280.30;;;115.37;;
14066;SDS011;7108;42.684;23.350;2023-05-07T09:22:19;282.57;;;116.53;;
14066;SDS011;7108;42.684;23.350;2023-05-07T09:24:48;274.67;;;118.97;;
14066;SDS011;7108;42.684;23.350;2023-05-07T09:27:14;262.13;;;112.27;;
14066;SDS011;7108;42.684;23.350;2023-05-07T09:29:40;272.80;;;114.33;;
14066;SDS011;7108;42.684;23.350;2023-05-07T09:32:06;251.53;;;114.77;;
14066;SDS011;7108;42.684;23.350;2023-05-07T09:34:33;291.03;;;119.13;;
14066;SDS011;7108;42.684;23.350;2023-05-07T09:37:02;248.70;;;115.43;;
14066;SDS011;7108;42.684;23.350;2023-05-07T09:39:44;256.73;;;112.73;;
14066;SDS011;7108;42.684;23.350;2023-05-07T09:42:12;294.87;;;117.40;;
14066;SDS011;7108;42.684;23.350;2023-05-07T09:44:39;281.90;;;110.87;;
14066;SDS011;7108;42.684;23.350;2023-05-07T09:47:05;251.23;;;107.70;;
14066;SDS011;7108;42.684;23.350;2023-05-07T09:49:33;266.83;;;104.83;;
14066;SDS011;7108;42.684;23.350;2023-05-07T09:52:00;251.50;;;103.60;;
14066;SDS011;7108;42.684;23.350;2023-05-07T09:54:26;270.07;;;103.87;;
14066;SDS011;7108;42.684;23.350;2023-05-07T09:56:56;273.67;;;103.70;;
14066;SDS011;7108;42.684;23.350;2023-05-07T09:59:22;273.43;;;103.20;;
14066;SDS011;7108;42.684;23.350;2023-05-07T10:01:48;257.27;;;100.40;;
14066;SDS011;7108;42.684;23.350;2023-05-07T10:04:14;280.10;;;107.30;;
14066;SDS011;7108;42.684;23.350;2023-05-07T10:06:40;279.63;;;107.97;;
14066;SDS011;7108;42.684;23.350;2023-05-07T10:09:06;252.83;;;100.07;;
14066;SDS011;7108;42.684;23.350;2023-05-07T10:11:37;265.17;;;103.63;;
14066;SDS011;7108;42.684;23.350;2023-05-07T10:14:03;254.40;;;102.30;;
14066;SDS011;7108;42.684;23.350;2023-05-07T10:16:35;270.63;;;104.50;;
14066;SDS011;7108;42.684;23.350;2023-05-07T10:19:05;259.93;;;106.63;;
14066;SDS011;7108;42.684;23.350;2023-05-07T10:21:34;273.43;;;107.87;;
14066;SDS011;7108;42.684;23.350;2023-05-07T10:24:05;248.17;;;101.57;;
14066;SDS011;7108;42.684;23.350;2023-05-07T10:26:40;268.40;;;107.17;;
14066;SDS011;7108;42.684;23.350;2023-05-07T10:35:14;276.33;;;109.17;;
14066;SDS011;7108;42.684;23.350;2023-05-07T10:37:45;270.20;;;109.53;;
14066;SDS011;7108;42.684;23.350;2023-05-07T10:40:12;268.90;;;103.90;;
14066;SDS011;7108;42.684;23.350;2023-05-07T10:42:38;263.13;;;103.87;;
14066;SDS011;7108;42.684;23.350;2023-05-07T10:45:13;256.00;;;106.93;;
14066;SDS011;7108;42.684;23.350;2023-05-07T10:50:42;267.77;;;105.73;;
14066;SDS011;7108;42.684;23.350;2023-05-07T10:53:30;265.70;;;118.47;;
14066;SDS011;7108;42.684;23.350;2023-05-07T10:58:41;298.20;;;117.77;;
14066;SDS011;7108;42.684;23.350;2023-05-07T11:01:07;279.00;;;113.20;;
14066;SDS011;7108;42.684;23.350;2023-05-07T11:03:32;266.53;;;110.73;;
14066;SDS011;7108;42.684;23.350;2023-05-07T11:06:11;256.53;;;109.67;;
14066;SDS011;7108;42.684;23.350;2023-05-07T11:11:19;278.50;;;113.00;;
14066;SDS011;7108;42.684;23.350;2023-05-07T11:14:05;274.27;;;115.97;;
14066;SDS011;7108;42.684;23.350;2023-05-07T11:16:30;262.43;;;111.63;;
14066;SDS011;7108;42.684;23.350;2023-05-07T11:18:58;258.77;;;109.77;;
14066;SDS011;7108;42.684;23.350;2023-05-07T11:21:40;270.10;;;112.73;;
14066;SDS011;7108;42.684;23.350;2023-05-07T11:24:07;271.40;;;114.80;;
14066;SDS011;7108;42.684;23.350;2023-05-07T11:26:55;260.20;;;110.13;;
14066;SDS011;7108;42.684;23.350;2023-05-07T11:29:20;294.80;;;115.43;;
14066;SDS011;7108;42.684;23.350;2023-05-07T11:31:50;305.90;;;119.03;;
14066;SDS011;7108;42.684;23.350;2023-05-07T11:34:20;281.53;;;115.27;;
14066;SDS011;7108;42.684;23.350;2023-05-07T11:36:47;306.63;;;121.03;;
14066;SDS011;7108;42.684;23.350;2023-05-07T11:39:27;282.00;;;114.03;;
14066;SDS011;7108;42.684;23.350;2023-05-07T11:41:54;267.63;;;117.13;;
14066;SDS011;7108;42.684;23.350;2023-05-07T11:44:19;284.47;;;119.27;;
14066;SDS011;7108;42.684;23.350;2023-05-07T11:46:45;295.90;;;117.07;;
14066;SDS011;7108;42.684;23.350;2023-05-07T11:49:10;259.07;;;119.30;;
14066;SDS011;7108;42.684;23.350;2023-05-07T11:51:36;268.47;;;116.37;;
14066;SDS011;7108;42.684;23.350;2023-05-07T11:54:03;267.77;;;114.47;;
14066;SDS011;7108;42.684;23.350;2023-05-07T11:56:34;267.53;;;114.53;;
14066;SDS011;7108;42.684;23.350;2023-05-07T11:59:00;272.83;;;119.27;;
14066;SDS011;7108;42.684;23.350;2023-05-07T12:01:26;282.27;;;116.27;;
14066;SDS011;7108;42.684;23.350;2023-05-07T12:03:51;286.93;;;117.40;;
14066;SDS011;7108;42.684;23.350;2023-05-07T12:06:17;282.23;;;115.47;;
14066;SDS011;7108;42.684;23.350;2023-05-07T12:08:43;326.53;;;125.17;;
14066;SDS011;7108;42.684;23.350;2023-05-07T12:11:12;260.73;;;111.03;;
14066;SDS011;7108;42.684;23.350;2023-05-07T12:13:46;276.47;;;114.43;;
14066;SDS011;7108;42.684;23.350;2023-05-07T12:16:12;291.37;;;123.20;;
14066;SDS011;7108;42.684;23.350;2023-05-07T12:18:37;276.70;;;114.17;;
14066;SDS011;7108;42.684;23.350;2023-05-07T12:21:04;294.87;;;125.70;;
14066;SDS011;7108;42.684;23.350;2023-05-07T12:23:31;275.23;;;120.23;;
14066;SDS011;7108;42.684;23.350;2023-05-07T12:25:57;313.20;;;122.43;;
14066;SDS011;7108;42.684;23.350;2023-05-07T12:28:22;326.63;;;122.60;;
14066;SDS011;7108;42.684;23.350;2023-05-07T12:30:48;300.37;;;123.57;;
14066;SDS011;7108;42.684;23.350;2023-05-07T12:33:19;276.97;;;117.43;;
14066;SDS011;7108;42.684;23.350;2023-05-07T12:35:48;306.90;;;117.87;;
14066;SDS011;7108;42.684;23.350;2023-05-07T12:38:15;289.73;;;119.10;;
14066;SDS011;7108;42.684;23.350;2023-05-07T12:40:43;298.83;;;115.43;;
14066;SDS011;7108;42.684;23.350;2023-05-07T12:43:20;264.40;;;115.40;;
14066;SDS011;7108;42.684;23.350;2023-05-07T12:45:49;302.50;;;119.93;;
14066;SDS011;7108;42.684;23.350;2023-05-07T12:48:16;283.13;;;111.40;;
14066;SDS011;7108;42.684;23.350;2023-05-07T12:50:42;309.50;;;118.30;;
14066;SDS011;7108;42.684;23.350;2023-05-07T12:53:09;265.10;;;114.30;;
14066;SDS011;7108;42.684;23.350;2023-05-07T12:55:43;268.43;;;110.30;;
14066;SDS011;7108;42.684;23.350;2023-05-07T12:58:20;278.50;;;112.53;;
14066;SDS011;7108;42.684;23.350;2023-05-07T13:00:56;281.50;;;113.57;;
14066;SDS011;7108;42.684;23.350;2023-05-07T13:03:26;281.73;;;113.00;;
14066;SDS011;7108;42.684;23.350;2023-05-07T13:05:55;289.63;;;115.77;;
14066;SDS011;7108;42.684;23.350;2023-05-07T13:08:30;264.13;;;112.07;;
14066;SDS011;7108;42.684;23.350;2023-05-07T13:11:01;258.27;;;110.20;;
14066;SDS011;7108;42.684;23.350;2023-05-07T13:13:32;261.43;;;109.80;;
14066;SDS011;7108;42.684;23.350;2023-05-07T13:15:58;262.90;;;111.10;;
14066;SDS011;7108;42.684;23.350;2023-05-07T13:18:25;282.07;;;113.27;;
14066;SDS011;7108;42.684;23.350;2023-05-07T13:20:51;287.77;;;116.17;;
14066;SDS011;7108;42.684;23.350;2023-05-07T13:23:17;286.63;;;113.07;;
14066;SDS011;7108;42.684;23.350;2023-05-07T13:25:43;290.23;;;111.90;;
14066;SDS011;7108;42.684;23.350;2023-05-07T13:28:08;263.53;;;111.07;;
14066;SDS011;7108;42.684;23.350;2023-05-07T13:30:34;258.70;;;110.53;;
14066;SDS011;7108;42.684;23.350;2023-05-07T13:32:59;277.77;;;116.67;;
14066;SDS011;7108;42.684;23.350;2023-05-07T13:35:25;322.37;;;123.37;;
14066;SDS011;7108;42.684;23.350;2023-05-07T13:37:50;326.40;;;125.57;;
14066;SDS011;7108;42.684;23.350;2023-05-07T13:40:17;307.70;;;118.03;;
14066;SDS011;7108;42.684;23.350;2023-05-07T13:42:44;333.10;;;122.60;;
14066;SDS011;7108;42.684;23.350;2023-05-07T13:45:10;296.93;;;117.93;;
14066;SDS011;7108;42.684;23.350;2023-05-07T13:47:35;324.13;;;121.57;;
14066;SDS011;7108;42.684;23.350;2023-05-07T13:50:01;335.17;;;125.37;;
14066;SDS011;7108;42.684;23.350;2023-05-07T13:52:26;317.90;;;121.17;;
14066;SDS011;7108;42.684;23.350;2023-05-07T13:54:52;324.47;;;121.00;;
14066;SDS011;7108;42.684;23.350;2023-05-07T13:57:18;347.47;;;126.57;;
14066;SDS011;7108;42.684;23.350;2023-05-07T13:59:43;346.73;;;121.93;;
14066;SDS011;7108;42.684;23.350;2023-05-07T14:02:09;295.17;;;116.63;;
14066;SDS011;7108;42.684;23.350;2023-05-07T14:04:34;330.27;;;118.20;;
14066;SDS011;7108;42.684;23.350;2023-05-07T14:07:00;296.70;;;116.00;;
14066;SDS011;7108;42.684;23.350;2023-05-07T14:09:25;342.87;;;126.50;;
14066;SDS011;7108;42.684;23.350;2023-05-07T14:11:51;335.40;;;121.77;;